Skip to main content.
 TIME   TEMPERATURE   WINDSPEED   DIRECTION   HUMIDITY   BAROMETER   RAINFALL 
22:05 14.0°C (57.2°F) 9.3 kmh (5.8 mph) W 82% 1015.9hPa (30.00 inHg) 0.0mm (0.00 in.)
21:05 13.0°C (55.4 °F) 9.3 kmh (5.8 mph) W 81% 1015.9hPa (30.00 inHg) 0.0mm (0.00 in.)
20:05 15.0°C (59.0 °F) 14.8 kmh (9.2 mph) WNW 76% 1015.9hPa (30.00 inHg) 0.0mm (0.00 in.)
19:05 15.0°C (59.0 °F) 14.8 kmh (9.2 mph) WNW 76% 1015.9hPa (30.00 inHg) 0.0mm (0.00 in.)
18:05 15.0°C (59.0 °F) 13.0 kmh (8.1 mph) WNW 82% 1015.9hPa (30.00 inHg) 0.0mm (0.00 in.)
17:05 16.0°C (60.8 °F) 14.8 kmh (9.2 mph) WNW 72% 1015.9hPa (30.00 inHg) 0.0mm (0.00 in.)
16:05 18.0°C (64.4 °F) 18.5 kmh (11.5 mph) WNW 67% 1015.9hPa (30.00 inHg) 0.0mm (0.00 in.)
15:05 18.0°C (64.4 °F) 18.5 kmh (11.5 mph) WNW 72% 1015.9hPa (30.00 inHg) 0.0mm (0.00 in.)
14:05 18.0°C (64.4 °F) 14.8 kmh (9.2 mph) WNW 72% 1016.9hPa (30.03 inHg) 0.0mm (0.00 in.)
13:05 19.0°C (66.2 °F) 16.7 kmh (10.4 mph) WNW 68% 1016.9hPa (30.03 inHg) 0.0mm (0.00 in.)
12:05 19.0°C (66.2 °F) 22.2 kmh (13.8 mph) NW 63% 1017.9hPa (30.06 inHg) 0.0mm (0.00 in.)
11:05 19.0°C (66.2 °F) 20.4 kmh (12.7 mph) NW 68% 1019.0hPa (30.09 inHg) 0.0mm (0.00 in.)
10:05 18.0°C (64.4 °F) 20.4 kmh (12.7 mph) NW 77% 1019.0hPa (30.09 inHg) 0.0mm (0.00 in.)
9:05 17.0°C (62.6 °F) 13.0 kmh (8.1 mph) NW 82% 1019.0hPa (30.09 inHg) 0.0mm (0.00 in.)
8:05 15.0°C (59.0 °F) 11.1 kmh (6.9 mph) W 87% 1019.0hPa (30.09 inHg) 0.0mm (0.00 in.)
7:05 15.0°C (59.0 °F) 13.0 kmh (8.1 mph) WNW 87% 1019.0hPa (30.09 inHg) 0.0mm (0.00 in.)
6:05 14.0°C (57.2 °F) 9.3 kmh (5.8 mph) W 87% 1019.0hPa (30.09 inHg) 0.0mm (0.00 in.)
5:05 14.0°C (57.2 °F) 7.4 kmh (4.6 mph) WSW 87% 1019.0hPa (30.09 inHg) 0.0mm (0.00 in.)
4:05 14.0°C (57.2 °F) 9.3 kmh (5.8 mph) SW 82% 1019.0hPa (30.09 inHg) 0.0mm (0.00 in.)
3:05 13.0°C (55.4 °F) 7.4 kmh (4.6 mph) SSW 93% 1020.0hPa (30.12 inHg) 0.0mm (0.00 in.)
2:05 12.0°C (53.6 °F) 7.4 kmh (4.6 mph) SSW 93% 1019.0hPa (30.09 inHg) 0.0mm (0.00 in.)
1:05 12.0°C (53.6 °F) 5.6 kmh (3.5 mph) SSW 93% 1020.0hPa (30.12 inHg) 0.0mm (0.00 in.)
0:05 13.0°C (55.4 °F) 5.6 kmh (3.5 mph) W 87% 1020.0hPa (30.12 inHg) 0.0mm (0.00 in.)
23:05 13.0°C (55.4 °F) 1.9 kmh (1.2 mph) WNW 87% 1020.0hPa (30.12 inHg) 0.0mm (0.00 in.)